sensor_id;sensor_type;location;lat;lon;timestamp;temperature;humidity
45549;DHT22;31270;48.328;10.096;2023-04-24T00:01:50;10.00;99.90
45549;DHT22;31270;48.328;10.096;2023-04-24T00:04:17;10.00;99.90
45549;DHT22;31270;48.328;10.096;2023-04-24T00:06:43;10.00;99.90
45549;DHT22;31270;48.328;10.096;2023-04-24T00:09:09;9.90;99.90
45549;DHT22;31270;48.328;10.096;2023-04-24T00:11:36;9.90;99.90
45549;DHT22;31270;48.328;10.096;2023-04-24T00:14:02;10.10;99.90
45549;DHT22;31270;48.328;10.096;2023-04-24T00:16:28;10.00;99.90
45549;DHT22;31270;48.328;10.096;2023-04-24T00:18:54;9.90;99.90
45549;DHT22;31270;48.328;10.096;2023-04-24T00:21:20;9.90;99.90
45549;DHT22;31270;48.328;10.096;2023-04-24T00:23:47;9.90;99.90
45549;DHT22;31270;48.328;10.096;2023-04-24T00:26:13;10.10;99.90
45549;DHT22;31270;48.328;10.096;2023-04-24T00:28:39;9.90;99.90
45549;DHT22;31270;48.328;10.096;2023-04-24T00:31:05;9.90;99.90
45549;DHT22;31270;48.328;10.096;2023-04-24T00:33:31;10.00;99.90
45549;DHT22;31270;48.328;10.096;2023-04-24T00:35:57;9.90;99.90
45549;DHT22;31270;48.328;10.096;2023-04-24T00:38:23;9.90;99.90
45549;DHT22;31270;48.328;10.096;2023-04-24T00:40:49;10.00;99.90
45549;DHT22;31270;48.328;10.096;2023-04-24T00:43:16;9.90;99.90
45549;DHT22;31270;48.328;10.096;2023-04-24T00:45:42;9.90;99.90
45549;DHT22;31270;48.328;10.096;2023-04-24T00:48:09;9.90;99.90
45549;DHT22;31270;48.328;10.096;2023-04-24T00:50:36;9.90;99.90
45549;DHT22;31270;48.328;10.096;2023-04-24T00:53:02;10.00;99.90
45549;DHT22;31270;48.328;10.096;2023-04-24T00:55:28;9.90;99.90
45549;DHT22;31270;48.328;10.096;2023-04-24T00:57:54;10.00;99.90
45549;DHT22;31270;48.328;10.096;2023-04-24T01:00:21;9.90;99.90
45549;DHT22;31270;48.328;10.096;2023-04-24T01:02:48;9.90;99.90
45549;DHT22;31270;48.328;10.096;2023-04-24T01:05:15;9.90;99.90
45549;DHT22;31270;48.328;10.096;2023-04-24T01:07:45;9.90;99.90
45549;DHT22;31270;48.328;10.096;2023-04-24T01:10:13;9.80;99.90
45549;DHT22;31270;48.328;10.096;2023-04-24T01:12:40;9.90;99.90
45549;DHT22;31270;48.328;10.096;2023-04-24T01:15:06;9.90;99.90
45549;DHT22;31270;48.328;10.096;2023-04-24T01:17:32;9.80;99.90
45549;DHT22;31270;48.328;10.096;2023-04-24T01:19:59;9.80;99.90
45549;DHT22;31270;48.328;10.096;2023-04-24T01:22:26;9.80;99.90
45549;DHT22;31270;48.328;10.096;2023-04-24T01:24:53;9.90;99.90
45549;DHT22;31270;48.328;10.096;2023-04-24T01:27:19;9.80;99.90
45549;DHT22;31270;48.328;10.096;2023-04-24T01:29:45;9.80;99.90
45549;DHT22;31270;48.328;10.096;2023-04-24T01:32:13;9.80;99.90
45549;DHT22;31270;48.328;10.096;2023-04-24T01:34:39;9.80;99.90
45549;DHT22;31270;48.328;10.096;2023-04-24T01:37:05;9.80;99.90
45549;DHT22;31270;48.328;10.096;2023-04-24T01:39:31;9.80;99.90
45549;DHT22;31270;48.328;10.096;2023-04-24T01:41:56;9.80;99.90
45549;DHT22;31270;48.328;10.096;2023-04-24T01:44:23;9.80;99.90
45549;DHT22;31270;48.328;10.096;2023-04-24T01:46:48;9.80;99.90
45549;DHT22;31270;48.328;10.096;2023-04-24T01:49:14;9.80;99.90
45549;DHT22;31270;48.328;10.096;2023-04-24T01:51:41;9.70;99.90
45549;DHT22;31270;48.328;10.096;2023-04-24T01:54:07;9.70;99.90
45549;DHT22;31270;48.328;10.096;2023-04-24T01:56:33;9.70;99.90
45549;DHT22;31270;48.328;10.096;2023-04-24T01:59:02;9.70;99.90
45549;DHT22;31270;48.328;10.096;2023-04-24T02:01:33;9.60;99.90
45549;DHT22;31270;48.328;10.096;2023-04-24T02:03:59;9.60;99.90
45549;DHT22;31270;48.328;10.096;2023-04-24T02:06:25;9.60;99.90
45549;DHT22;31270;48.328;10.096;2023-04-24T02:08:50;9.60;99.90
45549;DHT22;31270;48.328;10.096;2023-04-24T02:11:16;9.60;99.90
45549;DHT22;31270;48.328;10.096;2023-04-24T02:13:42;9.60;99.90
45549;DHT22;31270;48.328;10.096;2023-04-24T02:16:07;9.60;99.90
45549;DHT22;31270;48.328;10.096;2023-04-24T02:18:33;9.60;99.90
45549;DHT22;31270;48.328;10.096;2023-04-24T02:20:58;9.70;99.90
45549;DHT22;31270;48.328;10.096;2023-04-24T02:23:25;9.60;99.90
45549;DHT22;31270;48.328;10.096;2023-04-24T02:25:52;9.50;99.90
45549;DHT22;31270;48.328;10.096;2023-04-24T02:28:19;9.60;99.90
45549;DHT22;31270;48.328;10.096;2023-04-24T02:30:45;9.50;99.90
45549;DHT22;31270;48.328;10.096;2023-04-24T02:33:11;9.50;99.90
45549;DHT22;31270;48.328;10.096;2023-04-24T02:35:37;9.50;99.90
45549;DHT22;31270;48.328;10.096;2023-04-24T02:38:03;9.50;99.90
45549;DHT22;31270;48.328;10.096;2023-04-24T02:40:29;9.60;99.90
45549;DHT22;31270;48.328;10.096;2023-04-24T02:42:55;9.60;99.90
45549;DHT22;31270;48.328;10.096;2023-04-24T02:45:21;9.50;99.90
45549;DHT22;31270;48.328;10.096;2023-04-24T02:47:46;9.60;99.90
45549;DHT22;31270;48.328;10.096;2023-04-24T02:50:12;9.60;99.90
45549;DHT22;31270;48.328;10.096;2023-04-24T02:52:38;9.60;99.90
45549;DHT22;31270;48.328;10.096;2023-04-24T02:55:04;9.50;99.90
45549;DHT22;31270;48.328;10.096;2023-04-24T02:57:31;9.50;99.90
45549;DHT22;31270;48.328;10.096;2023-04-24T02:59:57;9.50;99.90
45549;DHT22;31270;48.328;10.096;2023-04-24T03:02:22;9.50;99.90
45549;DHT22;31270;48.328;10.096;2023-04-24T03:04:48;9.50;99.90
45549;DHT22;31270;48.328;10.096;2023-04-24T03:07:14;9.50;99.90
45549;DHT22;31270;48.328;10.096;2023-04-24T03:09:46;9.50;99.90
45549;DHT22;31270;48.328;10.096;2023-04-24T03:12:12;9.50;99.90
45549;DHT22;31270;48.328;10.096;2023-04-24T03:14:37;9.60;99.90
45549;DHT22;31270;48.328;10.096;2023-04-24T03:17:03;9.50;99.90
45549;DHT22;31270;48.328;10.096;2023-04-24T03:19:28;9.50;99.90
45549;DHT22;31270;48.328;10.096;2023-04-24T03:21:54;9.60;99.90
45549;DHT22;31270;48.328;10.096;2023-04-24T03:24:20;9.50;99.90
45549;DHT22;31270;48.328;10.096;2023-04-24T03:26:46;9.40;99.90
45549;DHT22;31270;48.328;10.096;2023-04-24T03:29:12;9.40;99.90
45549;DHT22;31270;48.328;10.096;2023-04-24T03:31:38;9.40;99.90
45549;DHT22;31270;48.328;10.096;2023-04-24T03:34:04;9.40;99.90
45549;DHT22;31270;48.328;10.096;2023-04-24T03:36:30;9.40;99.90
45549;DHT22;31270;48.328;10.096;2023-04-24T03:38:57;9.40;99.90
45549;DHT22;31270;48.328;10.096;2023-04-24T03:41:23;9.40;99.90
45549;DHT22;31270;48.328;10.096;2023-04-24T03:43:48;9.50;99.90
45549;DHT22;31270;48.328;10.096;2023-04-24T03:46:14;9.40;99.90
45549;DHT22;31270;48.328;10.096;2023-04-24T03:48:40;9.40;99.90
45549;DHT22;31270;48.328;10.096;2023-04-24T03:51:06;9.50;99.90
45549;DHT22;31270;48.328;10.096;2023-04-24T03:53:31;9.40;99.90
45549;DHT22;31270;48.328;10.096;2023-04-24T03:55:57;9.40;99.90
45549;DHT22;31270;48.328;10.096;2023-04-24T03:58:22;9.50;99.90
45549;DHT22;31270;48.328;10.096;2023-04-24T04:00:48;9.30;99.90
45549;DHT22;31270;48.328;10.096;2023-04-24T04:03:14;9.40;99.90
45549;DHT22;31270;48.328;10.096;2023-04-24T04:05:40;9.40;99.90
45549;DHT22;31270;48.328;10.096;2023-04-24T04:08:06;9.40;99.90
45549;DHT22;31270;48.328;10.096;2023-04-24T04:10:31;9.40;99.90
45549;DHT22;31270;48.328;10.096;2023-04-24T04:12:57;9.40;99.90
45549;DHT22;31270;48.328;10.096;2023-04-24T04:15:22;9.40;99.90
45549;DHT22;31270;48.328;10.096;2023-04-24T04:17:48;9.60;99.90
45549;DHT22;31270;48.328;10.096;2023-04-24T04:20:14;9.40;99.90
45549;DHT22;31270;48.328;10.096;2023-04-24T04:22:39;9.40;99.90
45549;DHT22;31270;48.328;10.096;2023-04-24T04:25:05;9.50;99.90
45549;DHT22;31270;48.328;10.096;2023-04-24T04:27:32;9.40;99.90
45549;DHT22;31270;48.328;10.096;2023-04-24T04:30:01;9.40;99.90
45549;DHT22;31270;48.328;10.096;2023-04-24T04:32:34;9.40;99.90
45549;DHT22;31270;48.328;10.096;2023-04-24T04:35:01;9.40;99.90
45549;DHT22;31270;48.328;10.096;2023-04-24T04:37:29;9.40;99.90
45549;DHT22;31270;48.328;10.096;2023-04-24T04:39:54;9.40;99.90
45549;DHT22;31270;48.328;10.096;2023-04-24T04:42:20;9.40;99.90
45549;DHT22;31270;48.328;10.096;2023-04-24T04:44:45;9.40;99.90
45549;DHT22;31270;48.328;10.096;2023-04-24T04:47:11;9.40;99.90
45549;DHT22;31270;48.328;10.096;2023-04-24T04:49:38;9.40;99.90
45549;DHT22;31270;48.328;10.096;2023-04-24T04:52:04;9.40;99.90
45549;DHT22;31270;48.328;10.096;2023-04-24T04:54:30;9.40;99.90
45549;DHT22;31270;48.328;10.096;2023-04-24T04:56:57;9.40;99.90
45549;DHT22;31270;48.328;10.096;2023-04-24T04:59:22;9.40;99.90
45549;DHT22;31270;48.328;10.096;2023-04-24T05:01:48;9.40;99.90
45549;DHT22;31270;48.328;10.096;2023-04-24T05:04:15;9.50;99.90
45549;DHT22;31270;48.328;10.096;2023-04-24T05:06:40;9.40;99.90
45549;DHT22;31270;48.328;10.096;2023-04-24T05:09:06;9.50;99.90
45549;DHT22;31270;48.328;10.096;2023-04-24T05:11:33;9.40;99.90
45549;DHT22;31270;48.328;10.096;2023-04-24T05:13:58;9.40;99.90
45549;DHT22;31270;48.328;10.096;2023-04-24T05:16:24;9.40;99.90
45549;DHT22;31270;48.328;10.096;2023-04-24T05:18:50;9.40;99.90
45549;DHT22;31270;48.328;10.096;2023-04-24T05:21:16;9.40;99.90
45549;DHT22;31270;48.328;10.096;2023-04-24T05:23:42;9.40;99.90
45549;DHT22;31270;48.328;10.096;2023-04-24T05:26:08;9.40;99.90
45549;DHT22;31270;48.328;10.096;2023-04-24T05:28:33;9.40;99.90
45549;DHT22;31270;48.328;10.096;2023-04-24T05:31:03;9.30;99.90
45549;DHT22;31270;48.328;10.096;2023-04-24T05:33:29;9.40;99.90
45549;DHT22;31270;48.328;10.096;2023-04-24T05:35:55;9.40;99.90
45549;DHT22;31270;48.328;10.096;2023-04-24T05:38:21;9.40;99.90
45549;DHT22;31270;48.328;10.096;2023-04-24T05:40:47;9.40;99.90
45549;DHT22;31270;48.328;10.096;2023-04-24T05:43:12;9.50;99.90
45549;DHT22;31270;48.328;10.096;2023-04-24T05:45:38;9.40;99.90
45549;DHT22;31270;48.328;10.096;2023-04-24T05:48:04;9.50;99.90
45549;DHT22;31270;48.328;10.096;2023-04-24T05:50:30;9.50;99.90
45549;DHT22;31270;48.328;10.096;2023-04-24T05:52:55;9.50;99.90
45549;DHT22;31270;48.328;10.096;2023-04-24T05:55:26;9.60;99.90
45549;DHT22;31270;48.328;10.096;2023-04-24T05:57:51;9.60;99.90
45549;DHT22;31270;48.328;10.096;2023-04-24T06:00:17;9.60;99.90
45549;DHT22;31270;48.328;10.096;2023-04-24T06:02:45;9.70;99.90
45549;DHT22;31270;48.328;10.096;2023-04-24T06:05:10;9.70;99.90
45549;DHT22;31270;48.328;10.096;2023-04-24T06:07:36;9.70;99.90
45549;DHT22;31270;48.328;10.096;2023-04-24T06:10:02;9.80;99.90
45549;DHT22;31270;48.328;10.096;2023-04-24T06:12:27;9.80;99.90
45549;DHT22;31270;48.328;10.096;2023-04-24T06:14:53;9.80;99.90
45549;DHT22;31270;48.328;10.096;2023-04-24T06:17:21;9.80;99.90
45549;DHT22;31270;48.328;10.096;2023-04-24T06:19:46;9.90;99.90
45549;DHT22;31270;48.328;10.096;2023-04-24T06:22:12;9.80;99.90
45549;DHT22;31270;48.328;10.096;2023-04-24T06:24:39;9.80;99.90
45549;DHT22;31270;48.328;10.096;2023-04-24T06:27:05;9.80;99.90
45549;DHT22;31270;48.328;10.096;2023-04-24T06:29:33;9.80;99.90
45549;DHT22;31270;48.328;10.096;2023-04-24T06:31:58;9.70;99.90
45549;DHT22;31270;48.328;10.096;2023-04-24T06:34:24;9.70;99.90
45549;DHT22;31270;48.328;10.096;2023-04-24T06:36:50;9.60;99.90
45549;DHT22;31270;48.328;10.096;2023-04-24T06:39:16;9.60;99.90
45549;DHT22;31270;48.328;10.096;2023-04-24T06:41:41;9.40;99.90
45549;DHT22;31270;48.328;10.096;2023-04-24T06:44:07;9.40;99.90
45549;DHT22;31270;48.328;10.096;2023-04-24T06:46:33;9.30;99.90
45549;DHT22;31270;48.328;10.096;2023-04-24T06:48:58;9.30;99.90
45549;DHT22;31270;48.328;10.096;2023-04-24T06:51:25;9.30;99.90
45549;DHT22;31270;48.328;10.096;2023-04-24T06:53:52;9.40;99.90
45549;DHT22;31270;48.328;10.096;2023-04-24T06:56:18;9.30;99.90
45549;DHT22;31270;48.328;10.096;2023-04-24T06:58:43;9.30;99.90
45549;DHT22;31270;48.328;10.096;2023-04-24T07:01:30;9.40;99.90
45549;DHT22;31270;48.328;10.096;2023-04-24T07:03:56;9.40;99.90
45549;DHT22;31270;48.328;10.096;2023-04-24T07:06:21;9.40;99.90
45549;DHT22;31270;48.328;10.096;2023-04-24T07:08:49;9.30;99.90
45549;DHT22;31270;48.328;10.096;2023-04-24T07:11:15;9.20;99.90
45549;DHT22;31270;48.328;10.096;2023-04-24T07:13:41;9.20;99.90
45549;DHT22;31270;48.328;10.096;2023-04-24T07:16:09;9.10;99.90
45549;DHT22;31270;48.328;10.096;2023-04-24T07:18:35;9.20;99.90
45549;DHT22;31270;48.328;10.096;2023-04-24T07:21:02;9.10;99.90
45549;DHT22;31270;48.328;10.096;2023-04-24T07:23:27;9.20;99.90
45549;DHT22;31270;48.328;10.096;2023-04-24T07:25:54;9.30;99.90
45549;DHT22;31270;48.328;10.096;2023-04-24T07:28:20;9.40;99.90
45549;DHT22;31270;48.328;10.096;2023-04-24T07:30:46;9.40;99.90
45549;DHT22;31270;48.328;10.096;2023-04-24T07:33:12;9.40;99.90
45549;DHT22;31270;48.328;10.096;2023-04-24T07:35:38;9.50;99.90
45549;DHT22;31270;48.328;10.096;2023-04-24T07:38:04;9.50;99.90
45549;DHT22;31270;48.328;10.096;2023-04-24T07:40:30;9.60;99.90
45549;DHT22;31270;48.328;10.096;2023-04-24T07:42:55;9.60;99.90
45549;DHT22;31270;48.328;10.096;2023-04-24T07:45:21;9.60;99.90
45549;DHT22;31270;48.328;10.096;2023-04-24T07:47:48;9.70;99.90
45549;DHT22;31270;48.328;10.096;2023-04-24T07:50:13;9.80;99.90
45549;DHT22;31270;48.328;10.096;2023-04-24T07:52:39;9.90;99.90
45549;DHT22;31270;48.328;10.096;2023-04-24T07:55:05;9.90;99.90
45549;DHT22;31270;48.328;10.096;2023-04-24T07:57:31;9.90;99.90
45549;DHT22;31270;48.328;10.096;2023-04-24T07:59:56;10.10;99.90
45549;DHT22;31270;48.328;10.096;2023-04-24T08:02:23;10.20;99.90
45549;DHT22;31270;48.328;10.096;2023-04-24T08:04:55;10.50;99.90
45549;DHT22;31270;48.328;10.096;2023-04-24T08:07:21;10.60;99.90
45549;DHT22;31270;48.328;10.096;2023-04-24T08:09:47;10.90;99.90
45549;DHT22;31270;48.328;10.096;2023-04-24T08:12:12;11.30;99.90
45549;DHT22;31270;48.328;10.096;2023-04-24T08:14:38;11.50;99.90
45549;DHT22;31270;48.328;10.096;2023-04-24T08:17:04;11.70;99.90
45549;DHT22;31270;48.328;10.096;2023-04-24T08:19:30;11.80;99.90
45549;DHT22;31270;48.328;10.096;2023-04-24T08:21:56;12.00;99.90
45549;DHT22;31270;48.328;10.096;2023-04-24T08:24:22;11.90;99.90
45549;DHT22;31270;48.328;10.096;2023-04-24T08:26:48;12.20;99.90
45549;DHT22;31270;48.328;10.096;2023-04-24T08:29:16;12.50;99.90
45549;DHT22;31270;48.328;10.096;2023-04-24T08:31:41;12.70;99.90
45549;DHT22;31270;48.328;10.096;2023-04-24T08:34:07;12.80;99.90
45549;DHT22;31270;48.328;10.096;2023-04-24T08:36:33;13.10;99.90
45549;DHT22;31270;48.328;10.096;2023-04-24T08:38:58;13.20;99.90
45549;DHT22;31270;48.328;10.096;2023-04-24T08:41:24;13.30;99.90
45549;DHT22;31270;48.328;10.096;2023-04-24T08:43:52;13.20;99.90
45549;DHT22;31270;48.328;10.096;2023-04-24T08:46:18;13.10;99.90
45549;DHT22;31270;48.328;10.096;2023-04-24T08:48:45;12.90;99.90
45549;DHT22;31270;48.328;10.096;2023-04-24T08:51:11;12.90;99.90
45549;DHT22;31270;48.328;10.096;2023-04-24T08:53:37;12.90;99.90
45549;DHT22;31270;48.328;10.096;2023-04-24T08:56:03;12.90;99.90
45549;DHT22;31270;48.328;10.096;2023-04-24T08:58:30;13.00;99.90
45549;DHT22;31270;48.328;10.096;2023-04-24T09:00:57;12.80;99.90
45549;DHT22;31270;48.328;10.096;2023-04-24T09:03:23;13.00;99.90
45549;DHT22;31270;48.328;10.096;2023-04-24T09:05:50;13.30;99.90
45549;DHT22;31270;48.328;10.096;2023-04-24T09:08:18;13.50;99.90
45549;DHT22;31270;48.328;10.096;2023-04-24T09:10:44;13.20;99.90
45549;DHT22;31270;48.328;10.096;2023-04-24T09:13:10;12.10;99.90
45549;DHT22;31270;48.328;10.096;2023-04-24T09:15:38;11.60;99.90
45549;DHT22;31270;48.328;10.096;2023-04-24T09:18:04;11.30;99.90
45549;DHT22;31270;48.328;10.096;2023-04-24T09:20:31;11.10;99.90
45549;DHT22;31270;48.328;10.096;2023-04-24T09:22:57;11.00;99.90
45549;DHT22;31270;48.328;10.096;2023-04-24T09:25:30;11.10;99.90
45549;DHT22;31270;48.328;10.096;2023-04-24T09:28:03;10.90;99.90
45549;DHT22;31270;48.328;10.096;2023-04-24T09:30:30;11.00;99.90
45549;DHT22;31270;48.328;10.096;2023-04-24T09:33:15;10.90;99.90
45549;DHT22;31270;48.328;10.096;2023-04-24T09:35:50;11.10;99.90
45549;DHT22;31270;48.328;10.096;2023-04-24T09:38:17;11.20;99.90
45549;DHT22;31270;48.328;10.096;2023-04-24T09:40:42;11.40;99.90
45549;DHT22;31270;48.328;10.096;2023-04-24T09:43:11;11.70;99.90
45549;DHT22;31270;48.328;10.096;2023-04-24T09:45:38;12.20;99.90
45549;DHT22;31270;48.328;10.096;2023-04-24T09:48:05;12.60;99.90
45549;DHT22;31270;48.328;10.096;2023-04-24T09:50:32;12.90;99.90
45549;DHT22;31270;48.328;10.096;2023-04-24T09:53:03;13.10;99.90
45549;DHT22;31270;48.328;10.096;2023-04-24T09:55:30;13.20;99.90
45549;DHT22;31270;48.328;10.096;2023-04-24T09:58:00;13.20;99.90
45549;DHT22;31270;48.328;10.096;2023-04-24T10:00:31;13.30;99.90
45549;DHT22;31270;48.328;10.096;2023-04-24T10:02:58;13.20;99.90
45549;DHT22;31270;48.328;10.096;2023-04-24T10:05:26;13.40;99.90
45549;DHT22;31270;48.328;10.096;2023-04-24T10:07:56;13.70;99.90
45549;DHT22;31270;48.328;10.096;2023-04-24T10:10:22;13.80;99.90
45549;DHT22;31270;48.328;10.096;2023-04-24T10:12:49;13.80;99.90
45549;DHT22;31270;48.328;10.096;2023-04-24T10:15:16;13.70;99.90
45549;DHT22;31270;48.328;10.096;2023-04-24T10:17:50;13.30;99.90
45549;DHT22;31270;48.328;10.096;2023-04-24T10:20:24;13.20;99.90
45549;DHT22;31270;48.328;10.096;2023-04-24T10:22:52;13.30;99.90
45549;DHT22;31270;48.328;10.096;2023-04-24T10:25:22;13.40;99.90
45549;DHT22;31270;48.328;10.096;2023-04-24T10:27:50;13.60;99.90
45549;DHT22;31270;48.328;10.096;2023-04-24T10:30:17;13.90;99.90
45549;DHT22;31270;48.328;10.096;2023-04-24T10:32:43;14.30;99.90
45549;DHT22;31270;48.328;10.096;2023-04-24T10:35:10;14.70;99.90
45549;DHT22;31270;48.328;10.096;2023-04-24T10:37:39;15.00;99.90
45549;DHT22;31270;48.328;10.096;2023-04-24T10:40:07;15.10;99.90
45549;DHT22;31270;48.328;10.096;2023-04-24T10:42:34;15.20;99.90
45549;DHT22;31270;48.328;10.096;2023-04-24T10:45:05;15.50;99.90
45549;DHT22;31270;48.328;10.096;2023-04-24T10:47:39;15.00;99.90
45549;DHT22;31270;48.328;10.096;2023-04-24T10:50:15;14.70;99.90
45549;DHT22;31270;48.328;10.096;2023-04-24T10:52:45;14.50;99.90
45549;DHT22;31270;48.328;10.096;2023-04-24T10:55:13;14.60;99.90
45549;DHT22;31270;48.328;10.096;2023-04-24T10:57:39;14.60;99.90
45549;DHT22;31270;48.328;10.096;2023-04-24T11:00:20;15.00;99.90
45549;DHT22;31270;48.328;10.096;2023-04-24T11:02:47;15.30;99.90
45549;DHT22;31270;48.328;10.096;2023-04-24T11:05:19;15.50;99.90
45549;DHT22;31270;48.328;10.096;2023-04-24T11:08:14;15.40;99.90
45549;DHT22;31270;48.328;10.096;2023-04-24T11:10:46;15.50;99.90
45549;DHT22;31270;48.328;10.096;2023-04-24T11:13:16;14.90;99.90
45549;DHT22;31270;48.328;10.096;2023-04-24T11:15:42;14.60;99.90
45549;DHT22;31270;48.328;10.096;2023-04-24T11:18:15;14.60;99.90
45549;DHT22;31270;48.328;10.096;2023-04-24T11:20:44;14.60;99.90
45549;DHT22;31270;48.328;10.096;2023-04-24T11:23:12;14.80;99.90
45549;DHT22;31270;48.328;10.096;2023-04-24T11:25:38;15.10;99.90
45549;DHT22;31270;48.328;10.096;2023-04-24T11:28:05;15.20;99.90
45549;DHT22;31270;48.328;10.096;2023-04-24T11:30:32;15.40;99.90
45549;DHT22;31270;48.328;10.096;2023-04-24T11:33:04;15.40;99.90
45549;DHT22;31270;48.328;10.096;2023-04-24T11:35:34;15.50;99.90
45549;DHT22;31270;48.328;10.096;2023-04-24T11:38:02;15.80;99.90
45549;DHT22;31270;48.328;10.096;2023-04-24T11:40:28;15.80;99.90
45549;DHT22;31270;48.328;10.096;2023-04-24T11:42:54;15.50;99.90
45549;DHT22;31270;48.328;10.096;2023-04-24T11:45:26;15.50;99.90
45549;DHT22;31270;48.328;10.096;2023-04-24T11:47:52;15.50;99.90
45549;DHT22;31270;48.328;10.096;2023-04-24T11:50:20;15.00;99.90
45549;DHT22;31270;48.328;10.096;2023-04-24T11:52:48;14.70;99.90
45549;DHT22;31270;48.328;10.096;2023-04-24T11:57:42;14.20;99.90
45549;DHT22;31270;48.328;10.096;2023-04-24T12:00:26;13.90;99.90
45549;DHT22;31270;48.328;10.096;2023-04-24T12:03:04;13.40;99.90
45549;DHT22;31270;48.328;10.096;2023-04-24T12:05:30;13.20;99.90
45549;DHT22;31270;48.328;10.096;2023-04-24T12:07:56;13.30;99.90
45549;DHT22;31270;48.328;10.096;2023-04-24T12:10:23;13.30;99.90
45549;DHT22;31270;48.328;10.096;2023-04-24T12:12:50;13.30;99.90
45549;DHT22;31270;48.328;10.096;2023-04-24T12:15:21;13.10;99.90
45549;DHT22;31270;48.328;10.096;2023-04-24T12:17:48;13.10;99.90
45549;DHT22;31270;48.328;10.096;2023-04-24T12:20:15;13.10;99.90
45549;DHT22;31270;48.328;10.096;2023-04-24T12:22:51;12.80;99.90
45549;DHT22;31270;48.328;10.096;2023-04-24T12:25:19;12.80;99.90
45549;DHT22;31270;48.328;10.096;2023-04-24T12:27:46;13.00;99.90
45549;DHT22;31270;48.328;10.096;2023-04-24T12:30:15;13.10;99.90
45549;DHT22;31270;48.328;10.096;2023-04-24T12:33:00;13.20;99.90
45549;DHT22;31270;48.328;10.096;2023-04-24T12:35:28;13.30;99.90
45549;DHT22;31270;48.328;10.096;2023-04-24T12:37:54;13.40;99.90
45549;DHT22;31270;48.328;10.096;2023-04-24T12:40:21;13.30;99.90
45549;DHT22;31270;48.328;10.096;2023-04-24T12:42:51;13.40;99.90
45549;DHT22;31270;48.328;10.096;2023-04-24T12:45:18;13.40;99.90
45549;DHT22;31270;48.328;10.096;2023-04-24T12:47:45;13.30;99.90
45549;DHT22;31270;48.328;10.096;2023-04-24T12:50:13;13.20;99.90
45549;DHT22;31270;48.328;10.096;2023-04-24T12:52:40;13.40;99.90
45549;DHT22;31270;48.328;10.096;2023-04-24T12:55:06;13.40;99.90
45549;DHT22;31270;48.328;10.096;2023-04-24T12:57:37;13.30;99.90
45549;DHT22;31270;48.328;10.096;2023-04-24T13:00:06;13.40;99.90
45549;DHT22;31270;48.328;10.096;2023-04-24T13:02:32;13.60;99.90
45549;DHT22;31270;48.328;10.096;2023-04-24T13:04:59;13.70;99.90
45549;DHT22;31270;48.328;10.096;2023-04-24T13:07:25;13.70;99.90
45549;DHT22;31270;48.328;10.096;2023-04-24T13:09:51;13.70;99.90
45549;DHT22;31270;48.328;10.096;2023-04-24T13:12:17;13.90;99.90
45549;DHT22;31270;48.328;10.096;2023-04-24T13:14:43;13.80;99.90
45549;DHT22;31270;48.328;10.096;2023-04-24T13:17:09;13.80;99.90
45549;DHT22;31270;48.328;10.096;2023-04-24T13:19:40;13.80;99.90
45549;DHT22;31270;48.328;10.096;2023-04-24T13:22:09;14.10;99.90
45549;DHT22;31270;48.328;10.096;2023-04-24T13:24:37;14.40;99.90
45549;DHT22;31270;48.328;10.096;2023-04-24T13:27:03;14.50;99.90
45549;DHT22;31270;48.328;10.096;2023-04-24T13:29:29;14.60;99.90
45549;DHT22;31270;48.328;10.096;2023-04-24T13:31:55;14.60;99.90
45549;DHT22;31270;48.328;10.096;2023-04-24T13:34:23;14.70;99.90
45549;DHT22;31270;48.328;10.096;2023-04-24T13:36:53;14.70;99.90
45549;DHT22;31270;48.328;10.096;2023-04-24T13:39:19;14.90;99.90
45549;DHT22;31270;48.328;10.096;2023-04-24T13:41:45;14.60;99.90
45549;DHT22;31270;48.328;10.096;2023-04-24T13:44:13;14.50;99.90
45549;DHT22;31270;48.328;10.096;2023-04-24T13:46:38;14.20;99.90
45549;DHT22;31270;48.328;10.096;2023-04-24T13:49:04;14.00;99.90
45549;DHT22;31270;48.328;10.096;2023-04-24T13:51:30;13.80;99.90
45549;DHT22;31270;48.328;10.096;2023-04-24T13:53:56;13.90;99.90
45549;DHT22;31270;48.328;10.096;2023-04-24T13:56:23;14.10;99.90
45549;DHT22;31270;48.328;10.096;2023-04-24T13:58:49;14.30;99.90
45549;DHT22;31270;48.328;10.096;2023-04-24T14:01:16;14.40;99.90
45549;DHT22;31270;48.328;10.096;2023-04-24T14:03:42;14.40;99.90
45549;DHT22;31270;48.328;10.096;2023-04-24T14:06:11;14.40;99.90
45549;DHT22;31270;48.328;10.096;2023-04-24T14:08:36;14.40;99.90
45549;DHT22;31270;48.328;10.096;2023-04-24T14:11:02;14.10;99.90
45549;DHT22;31270;48.328;10.096;2023-04-24T14:13:28;14.00;99.90
45549;DHT22;31270;48.328;10.096;2023-04-24T14:15:54;14.10;99.90
45549;DHT22;31270;48.328;10.096;2023-04-24T14:18:20;14.20;99.90
45549;DHT22;31270;48.328;10.096;2023-04-24T14:20:45;14.10;99.90
45549;DHT22;31270;48.328;10.096;2023-04-24T14:23:11;14.10;99.90
45549;DHT22;31270;48.328;10.096;2023-04-24T14:25:37;14.00;99.90
45549;DHT22;31270;48.328;10.096;2023-04-24T14:28:02;14.10;99.90
45549;DHT22;31270;48.328;10.096;2023-04-24T14:30:28;13.90;99.90
45549;DHT22;31270;48.328;10.096;2023-04-24T14:32:54;14.00;99.90
45549;DHT22;31270;48.328;10.096;2023-04-24T14:35:20;14.10;99.90
45549;DHT22;31270;48.328;10.096;2023-04-24T14:37:46;14.20;99.90
45549;DHT22;31270;48.328;10.096;2023-04-24T14:40:13;14.20;99.90
45549;DHT22;31270;48.328;10.096;2023-04-24T14:42:40;14.00;99.90
45549;DHT22;31270;48.328;10.096;2023-04-24T14:45:06;13.60;99.90
45549;DHT22;31270;48.328;10.096;2023-04-24T14:47:34;13.50;99.90
45549;DHT22;31270;48.328;10.096;2023-04-24T14:49:59;13.40;99.90
45549;DHT22;31270;48.328;10.096;2023-04-24T14:52:25;13.40;99.90
45549;DHT22;31270;48.328;10.096;2023-04-24T14:54:51;13.20;99.90
45549;DHT22;31270;48.328;10.096;2023-04-24T14:57:16;13.30;99.90
45549;DHT22;31270;48.328;10.096;2023-04-24T14:59:42;13.40;99.90
45549;DHT22;31270;48.328;10.096;2023-04-24T15:02:07;13.40;99.90
45549;DHT22;31270;48.328;10.096;2023-04-24T15:04:33;13.40;99.90
45549;DHT22;31270;48.328;10.096;2023-04-24T15:06:59;13.10;99.90
45549;DHT22;31270;48.328;10.096;2023-04-24T15:09:24;12.90;99.90
45549;DHT22;31270;48.328;10.096;2023-04-24T15:11:51;12.90;99.90
45549;DHT22;31270;48.328;10.096;2023-04-24T15:14:17;12.80;99.90
45549;DHT22;31270;48.328;10.096;2023-04-24T15:16:44;12.70;99.90
45549;DHT22;31270;48.328;10.096;2023-04-24T15:19:10;12.70;99.90
45549;DHT22;31270;48.328;10.096;2023-04-24T15:21:37;12.70;99.90
45549;DHT22;31270;48.328;10.096;2023-04-24T15:24:04;12.80;99.90